sensor_id;sensor_type;location;lat;lon;timestamp;P1;P2;P0
65360;PMS5003;51958;55.018;73.536;2023-04-25T00:00:21;3.50;3.50;2.00
65360;PMS5003;51958;55.018;73.536;2023-04-25T00:03:33;7.00;4.00;2.00
65360;PMS5003;51958;55.018;73.536;2023-04-25T00:06:36;6.00;5.00;2.00
65360;PMS5003;51958;55.018;73.536;2023-04-25T00:09:41;3.50;3.00;0.50
65360;PMS5003;51958;55.018;73.536;2023-04-25T00:12:43;1.00;1.00;1.00
65360;PMS5003;51958;55.018;73.536;2023-04-25T00:15:54;0.00;0.00;0.00
65360;PMS5003;51958;55.018;73.536;2023-04-25T00:18:57;0.00;0.00;0.00
65360;PMS5003;51958;55.018;73.536;2023-04-25T00:22:04;0.00;0.00;0.00
65360;PMS5003;51958;55.018;73.536;2023-04-25T00:25:06;0.00;0.00;0.00
65360;PMS5003;51958;55.018;73.536;2023-04-25T00:28:07;0.00;0.00;0.00
65360;PMS5003;51958;55.018;73.536;2023-04-25T00:31:08;0.00;0.00;0.00
65360;PMS5003;51958;55.018;73.536;2023-04-25T00:34:09;0.00;0.00;0.00
65360;PMS5003;51958;55.018;73.536;2023-04-25T00:37:11;1.00;0.33;0.00
65360;PMS5003;51958;55.018;73.536;2023-04-25T00:40:12;1.00;1.00;0.00
65360;PMS5003;51958;55.018;73.536;2023-04-25T00:43:13;3.00;1.00;0.00
65360;PMS5003;51958;55.018;73.536;2023-04-25T00:46:15;2.00;2.00;0.00
65360;PMS5003;51958;55.018;73.536;2023-04-25T00:49:16;0.00;0.00;0.00
65360;PMS5003;51958;55.018;73.536;2023-04-25T00:52:19;1.00;1.00;0.00
65360;PMS5003;51958;55.018;73.536;2023-04-25T00:55:21;0.00;0.00;0.00
65360;PMS5003;51958;55.018;73.536;2023-04-25T00:58:22;1.33;0.67;0.00
65360;PMS5003;51958;55.018;73.536;2023-04-25T01:01:24;5.67;4.00;0.00
65360;PMS5003;51958;55.018;73.536;2023-04-25T01:04:36;7.00;5.00;2.33
65360;PMS5003;51958;55.018;73.536;2023-04-25T01:07:40;4.00;3.33;2.00
65360;PMS5003;51958;55.018;73.536;2023-04-25T01:10:41;3.00;3.00;1.00
65360;PMS5003;51958;55.018;73.536;2023-04-25T01:13:52;3.00;2.00;0.00
65360;PMS5003;51958;55.018;73.536;2023-04-25T01:16:53;3.00;3.00;0.00
65360;PMS5003;51958;55.018;73.536;2023-04-25T01:19:55;3.00;3.00;1.00
65360;PMS5003;51958;55.018;73.536;2023-04-25T01:22:56;4.00;3.00;1.00
65360;PMS5003;51958;55.018;73.536;2023-04-25T01:25:57;2.00;2.00;0.00
65360;PMS5003;51958;55.018;73.536;2023-04-25T01:28:58;1.00;1.00;0.00
65360;PMS5003;51958;55.018;73.536;2023-04-25T01:32:01;1.00;1.00;0.00
65360;PMS5003;51958;55.018;73.536;2023-04-25T01:35:07;3.00;2.67;0.00
65360;PMS5003;51958;55.018;73.536;2023-04-25T01:38:11;2.67;2.67;0.00
65360;PMS5003;51958;55.018;73.536;2023-04-25T01:41:13;0.00;0.00;0.00
65360;PMS5003;51958;55.018;73.536;2023-04-25T01:44:14;0.00;0.00;0.00
65360;PMS5003;51958;55.018;73.536;2023-04-25T01:47:21;0.67;0.00;0.00
65360;PMS5003;51958;55.018;73.536;2023-04-25T01:50:23;1.33;0.00;0.00
65360;PMS5003;51958;55.018;73.536;2023-04-25T01:53:29;0.00;0.00;0.00
65360;PMS5003;51958;55.018;73.536;2023-04-25T01:56:31;0.00;0.00;0.00
65360;PMS5003;51958;55.018;73.536;2023-04-25T01:59:33;0.00;0.00;0.00
65360;PMS5003;51958;55.018;73.536;2023-04-25T02:03:01;0.00;0.00;0.00
65360;PMS5003;51958;55.018;73.536;2023-04-25T02:06:06;0.00;0.00;0.00
65360;PMS5003;51958;55.018;73.536;2023-04-25T02:09:11;0.00;0.00;0.00
65360;PMS5003;51958;55.018;73.536;2023-04-25T02:12:27;0.00;0.00;0.00
65360;PMS5003;51958;55.018;73.536;2023-04-25T02:15:54;1.00;0.00;0.00
65360;PMS5003;51958;55.018;73.536;2023-04-25T02:18:55;0.00;0.00;0.00
65360;PMS5003;51958;55.018;73.536;2023-04-25T02:22:07;0.00;0.00;0.00
65360;PMS5003;51958;55.018;73.536;2023-04-25T02:25:09;1.00;1.00;0.00
65360;PMS5003;51958;55.018;73.536;2023-04-25T02:28:10;1.00;1.00;0.00
65360;PMS5003;51958;55.018;73.536;2023-04-25T02:31:12;2.00;1.00;0.00
65360;PMS5003;51958;55.018;73.536;2023-04-25T02:34:13;0.33;0.33;0.00
65360;PMS5003;51958;55.018;73.536;2023-04-25T02:37:14;0.00;0.00;0.00
65360;PMS5003;51958;55.018;73.536;2023-04-25T02:40:15;0.00;0.00;0.00
65360;PMS5003;51958;55.018;73.536;2023-04-25T02:43:26;1.00;0.00;0.00
65360;PMS5003;51958;55.018;73.536;2023-04-25T02:46:27;1.00;1.00;0.00
65360;PMS5003;51958;55.018;73.536;2023-04-25T02:49:28;1.00;1.00;0.00
65360;PMS5003;51958;55.018;73.536;2023-04-25T02:52:29;2.00;2.00;0.00
65360;PMS5003;51958;55.018;73.536;2023-04-25T02:55:38;0.00;0.00;0.00
65360;PMS5003;51958;55.018;73.536;2023-04-25T02:58:40;0.67;0.00;0.00
65360;PMS5003;51958;55.018;73.536;2023-04-25T03:01:51;0.00;0.00;0.00
65360;PMS5003;51958;55.018;73.536;2023-04-25T03:04:52;0.33;0.00;0.00
65360;PMS5003;51958;55.018;73.536;2023-04-25T03:08:04;0.00;0.00;0.00
65360;PMS5003;51958;55.018;73.536;2023-04-25T03:11:07;1.00;0.00;0.00
65360;PMS5003;51958;55.018;73.536;2023-04-25T03:14:09;2.33;1.33;0.00
65360;PMS5003;51958;55.018;73.536;2023-04-25T03:17:15;1.00;0.00;0.00
65360;PMS5003;51958;55.018;73.536;2023-04-25T03:20:16;1.00;0.00;0.00
65360;PMS5003;51958;55.018;73.536;2023-04-25T03:23:17;2.00;1.00;0.00
65360;PMS5003;51958;55.018;73.536;2023-04-25T03:26:19;1.00;1.00;0.00
65360;PMS5003;51958;55.018;73.536;2023-04-25T03:29:31;0.00;0.00;0.00
65360;PMS5003;51958;55.018;73.536;2023-04-25T03:32:35;0.00;0.00;0.00
65360;PMS5003;51958;55.018;73.536;2023-04-25T03:35:41;0.00;0.00;0.00
65360;PMS5003;51958;55.018;73.536;2023-04-25T03:38:43;1.00;0.00;0.00
65360;PMS5003;51958;55.018;73.536;2023-04-25T03:41:46;1.67;1.00;0.00
65360;PMS5003;51958;55.018;73.536;2023-04-25T03:44:49;1.00;1.00;0.00
65360;PMS5003;51958;55.018;73.536;2023-04-25T03:47:50;1.00;0.00;0.00
65360;PMS5003;51958;55.018;73.536;2023-04-25T03:50:52;1.00;1.00;0.00
65360;PMS5003;51958;55.018;73.536;2023-04-25T03:53:53;2.00;1.00;0.00
65360;PMS5003;51958;55.018;73.536;2023-04-25T03:57:11;2.00;1.00;0.00
65360;PMS5003;51958;55.018;73.536;2023-04-25T04:00:16;2.00;1.00;0.00
65360;PMS5003;51958;55.018;73.536;2023-04-25T04:03:17;3.00;2.67;0.00
65360;PMS5003;51958;55.018;73.536;2023-04-25T04:06:23;1.00;1.00;0.00
65360;PMS5003;51958;55.018;73.536;2023-04-25T04:09:31;2.00;2.00;0.00
65360;PMS5003;51958;55.018;73.536;2023-04-25T04:12:34;1.00;1.00;0.00
65360;PMS5003;51958;55.018;73.536;2023-04-25T04:15:36;1.00;1.00;0.00
65360;PMS5003;51958;55.018;73.536;2023-04-25T04:18:37;2.00;2.00;0.00
65360;PMS5003;51958;55.018;73.536;2023-04-25T04:21:48;1.00;0.00;0.00
65360;PMS5003;51958;55.018;73.536;2023-04-25T04:25:00;1.00;1.00;0.00
65360;PMS5003;51958;55.018;73.536;2023-04-25T04:28:21;1.00;1.00;0.00
65360;PMS5003;51958;55.018;73.536;2023-04-25T04:31:30;1.33;0.00;0.00
65360;PMS5003;51958;55.018;73.536;2023-04-25T04:34:34;0.00;0.00;0.00
65360;PMS5003;51958;55.018;73.536;2023-04-25T04:37:41;0.00;0.00;0.00
65360;PMS5003;51958;55.018;73.536;2023-04-25T04:40:50;2.00;2.00;0.00
65360;PMS5003;51958;55.018;73.536;2023-04-25T04:43:56;1.00;1.00;0.00
65360;PMS5003;51958;55.018;73.536;2023-04-25T04:47:14;0.00;0.00;0.00
65360;PMS5003;51958;55.018;73.536;2023-04-25T04:50:35;0.00;0.00;0.00
65360;PMS5003;51958;55.018;73.536;2023-04-25T04:54:10;1.00;0.00;0.00
65360;PMS5003;51958;55.018;73.536;2023-04-25T04:57:31;1.75;0.00;0.00
65360;PMS5003;51958;55.018;73.536;2023-04-25T05:00:48;1.67;1.00;0.00
65360;PMS5003;51958;55.018;73.536;2023-04-25T05:04:28;1.75;1.00;0.00
65360;PMS5003;51958;55.018;73.536;2023-04-25T05:07:42;1.00;0.00;0.00
65360;PMS5003;51958;55.018;73.536;2023-04-25T05:11:03;2.00;1.00;0.00
65360;PMS5003;51958;55.018;73.536;2023-04-25T05:14:32;3.75;1.00;0.00
65360;PMS5003;51958;55.018;73.536;2023-04-25T05:17:59;1.00;1.00;0.00
65360;PMS5003;51958;55.018;73.536;2023-04-25T05:21:24;1.00;1.00;0.00
65360;PMS5003;51958;55.018;73.536;2023-04-25T05:24:55;1.75;1.00;0.00
65360;PMS5003;51958;55.018;73.536;2023-04-25T05:28:15;1.75;1.75;0.00
65360;PMS5003;51958;55.018;73.536;2023-04-25T05:31:36;1.00;1.00;0.00
65360;PMS5003;51958;55.018;73.536;2023-04-25T05:34:43;1.00;1.00;0.00
65360;PMS5003;51958;55.018;73.536;2023-04-25T05:37:54;1.00;0.00;0.00
65360;PMS5003;51958;55.018;73.536;2023-04-25T05:41:06;3.33;1.67;0.00
65360;PMS5003;51958;55.018;73.536;2023-04-25T05:44:17;4.00;2.50;0.00
65360;PMS5003;51958;55.018;73.536;2023-04-25T05:47:39;8.00;6.00;1.00
65360;PMS5003;51958;55.018;73.536;2023-04-25T05:50:45;7.00;5.00;2.00
65360;PMS5003;51958;55.018;73.536;2023-04-25T05:54:05;7.25;5.50;3.00
65360;PMS5003;51958;55.018;73.536;2023-04-25T05:57:17;8.50;5.00;2.50
65360;PMS5003;51958;55.018;73.536;2023-04-25T06:00:18;6.00;6.00;2.00
65360;PMS5003;51958;55.018;73.536;2023-04-25T06:03:23;6.00;5.00;3.00
65360;PMS5003;51958;55.018;73.536;2023-04-25T06:06:24;20.25;16.00;8.00
65360;PMS5003;51958;55.018;73.536;2023-04-25T06:09:26;8.50;7.00;1.00
65360;PMS5003;51958;55.018;73.536;2023-04-25T06:12:28;2.67;2.67;0.00
65360;PMS5003;51958;55.018;73.536;2023-04-25T06:15:29;2.00;2.00;0.00
65360;PMS5003;51958;55.018;73.536;2023-04-25T06:18:30;2.75;2.00;0.00
65360;PMS5003;51958;55.018;73.536;2023-04-25T06:21:32;3.00;1.00;0.00
65360;PMS5003;51958;55.018;73.536;2023-04-25T06:24:33;1.00;1.00;0.00
65360;PMS5003;51958;55.018;73.536;2023-04-25T06:27:38;1.00;1.00;0.00
65360;PMS5003;51958;55.018;73.536;2023-04-25T06:30:41;1.00;0.00;0.00
65360;PMS5003;51958;55.018;73.536;2023-04-25T06:33:56;0.00;0.00;0.00
65360;PMS5003;51958;55.018;73.536;2023-04-25T06:37:04;2.00;1.00;0.00
65360;PMS5003;51958;55.018;73.536;2023-04-25T06:40:18;3.00;1.00;0.00
65360;PMS5003;51958;55.018;73.536;2023-04-25T06:43:20;0.50;0.00;0.00
65360;PMS5003;51958;55.018;73.536;2023-04-25T06:46:24;2.00;2.00;0.00
65360;PMS5003;51958;55.018;73.536;2023-04-25T06:49:25;1.00;1.00;0.00
65360;PMS5003;51958;55.018;73.536;2023-04-25T06:52:31;1.00;1.00;0.00
65360;PMS5003;51958;55.018;73.536;2023-04-25T06:55:33;0.00;0.00;0.00
65360;PMS5003;51958;55.018;73.536;2023-04-25T06:58:51;2.00;2.00;0.00
65360;PMS5003;51958;55.018;73.536;2023-04-25T07:02:19;3.00;3.00;0.00
65360;PMS5003;51958;55.018;73.536;2023-04-25T07:05:29;2.00;2.00;0.00
65360;PMS5003;51958;55.018;73.536;2023-04-25T07:08:31;0.00;0.00;0.00
65360;PMS5003;51958;55.018;73.536;2023-04-25T07:11:33;1.00;1.00;0.00
65360;PMS5003;51958;55.018;73.536;2023-04-25T07:14:34;2.00;1.00;0.00
65360;PMS5003;51958;55.018;73.536;2023-04-25T07:17:35;1.50;0.50;0.00
65360;PMS5003;51958;55.018;73.536;2023-04-25T07:20:39;3.00;1.00;0.00
65360;PMS5003;51958;55.018;73.536;2023-04-25T07:23:41;2.00;0.00;0.00
65360;PMS5003;51958;55.018;73.536;2023-04-25T07:26:47;2.50;1.50;0.00
65360;PMS5003;51958;55.018;73.536;2023-04-25T07:30:09;2.75;2.25;0.00
65360;PMS5003;51958;55.018;73.536;2023-04-25T07:33:13;2.00;2.00;0.00
65360;PMS5003;51958;55.018;73.536;2023-04-25T07:36:24;3.00;3.00;0.00
65360;PMS5003;51958;55.018;73.536;2023-04-25T07:39:27;3.00;3.00;0.00
65360;PMS5003;51958;55.018;73.536;2023-04-25T07:42:28;2.00;2.00;0.00
65360;PMS5003;51958;55.018;73.536;2023-04-25T07:45:29;1.00;1.00;0.00
65360;PMS5003;51958;55.018;73.536;2023-04-25T07:48:30;2.50;1.00;0.00
65360;PMS5003;51958;55.018;73.536;2023-04-25T07:51:32;3.00;1.00;0.00
65360;PMS5003;51958;55.018;73.536;2023-04-25T07:54:38;3.25;2.50;0.00
65360;PMS5003;51958;55.018;73.536;2023-04-25T07:57:47;4.50;4.00;1.00
65360;PMS5003;51958;55.018;73.536;2023-04-25T08:00:49;3.00;2.50;1.00
65360;PMS5003;51958;55.018;73.536;2023-04-25T08:04:16;2.00;2.00;0.00
65360;PMS5003;51958;55.018;73.536;2023-04-25T08:07:40;0.00;0.00;0.00
65360;PMS5003;51958;55.018;73.536;2023-04-25T08:10:42;2.50;1.50;0.50
65360;PMS5003;51958;55.018;73.536;2023-04-25T08:13:48;4.33;3.67;0.67
65360;PMS5003;51958;55.018;73.536;2023-04-25T08:16:52;5.50;5.50;1.50
65360;PMS5003;51958;55.018;73.536;2023-04-25T08:20:00;3.00;3.00;1.00
65360;PMS5003;51958;55.018;73.536;2023-04-25T08:23:05;3.00;3.00;0.00
65360;PMS5003;51958;55.018;73.536;2023-04-25T08:26:29;3.00;3.00;0.00
65360;PMS5003;51958;55.018;73.536;2023-04-25T08:29:31;8.00;7.00;3.00
65360;PMS5003;51958;55.018;73.536;2023-04-25T08:32:32;8.25;8.25;5.00
65360;PMS5003;51958;55.018;73.536;2023-04-25T08:35:50;9.00;8.00;6.00
65360;PMS5003;51958;55.018;73.536;2023-04-25T08:38:51;8.00;7.00;5.00
65360;PMS5003;51958;55.018;73.536;2023-04-25T08:41:54;11.00;10.00;5.75
65360;PMS5003;51958;55.018;73.536;2023-04-25T08:44:56;13.00;10.00;5.50
65360;PMS5003;51958;55.018;73.536;2023-04-25T08:48:04;12.75;12.00;8.00
65360;PMS5003;51958;55.018;73.536;2023-04-25T08:51:08;16.75;15.00;9.00
65360;PMS5003;51958;55.018;73.536;2023-04-25T08:54:11;19.00;17.00;9.00
65360;PMS5003;51958;55.018;73.536;2023-04-25T08:57:18;20.00;18.00;9.00
65360;PMS5003;51958;55.018;73.536;2023-04-25T09:00:20;17.00;14.00;7.00
65360;PMS5003;51958;55.018;73.536;2023-04-25T09:03:21;15.00;13.00;8.00
65360;PMS5003;51958;55.018;73.536;2023-04-25T09:06:23;14.50;11.00;7.00
65360;PMS5003;51958;55.018;73.536;2023-04-25T09:09:25;13.75;10.75;6.00
65360;PMS5003;51958;55.018;73.536;2023-04-25T09:12:26;6.00;5.00;2.00
65360;PMS5003;51958;55.018;73.536;2023-04-25T09:15:28;7.00;7.00;3.00
65360;PMS5003;51958;55.018;73.536;2023-04-25T09:18:33;4.00;4.00;3.00
65360;PMS5003;51958;55.018;73.536;2023-04-25T09:21:35;7.00;7.00;4.00
65360;PMS5003;51958;55.018;73.536;2023-04-25T09:24:41;5.00;5.00;2.50
65360;PMS5003;51958;55.018;73.536;2023-04-25T09:27:54;5.00;4.00;1.00
65360;PMS5003;51958;55.018;73.536;2023-04-25T09:31:01;7.00;7.00;4.00
65360;PMS5003;51958;55.018;73.536;2023-04-25T09:34:12;9.00;8.67;4.67
65360;PMS5003;51958;55.018;73.536;2023-04-25T09:37:22;8.50;8.50;4.75
65360;PMS5003;51958;55.018;73.536;2023-04-25T09:40:44;9.00;9.00;6.00
65360;PMS5003;51958;55.018;73.536;2023-04-25T09:43:52;9.00;9.00;6.00
65360;PMS5003;51958;55.018;73.536;2023-04-25T09:46:58;13.50;13.50;9.00
65360;PMS5003;51958;55.018;73.536;2023-04-25T09:50:01;21.50;19.75;11.75
65360;PMS5003;51958;55.018;73.536;2023-04-25T09:53:14;26.00;23.00;16.33
65360;PMS5003;51958;55.018;73.536;2023-04-25T09:56:39;28.00;25.75;18.75
65360;PMS5003;51958;55.018;73.536;2023-04-25T09:59:53;36.00;31.25;22.25
65360;PMS5003;51958;55.018;73.536;2023-04-25T10:02:55;38.33;32.00;24.00
65360;PMS5003;51958;55.018;73.536;2023-04-25T10:06:23;38.00;32.75;23.00
65360;PMS5003;51958;55.018;73.536;2023-04-25T10:09:31;33.75;31.00;22.00
65360;PMS5003;51958;55.018;73.536;2023-04-25T10:12:34;31.75;29.50;21.25
65360;PMS5003;51958;55.018;73.536;2023-04-25T10:15:36;26.25;24.00;19.00
65360;PMS5003;51958;55.018;73.536;2023-04-25T10:18:42;23.00;21.00;17.00
65360;PMS5003;51958;55.018;73.536;2023-04-25T10:24:58;19.00;19.00;13.00
65360;PMS5003;51958;55.018;73.536;2023-04-25T10:27:59;19.25;19.00;12.00
65360;PMS5003;51958;55.018;73.536;2023-04-25T10:31:01;25.25;23.75;16.75
65360;PMS5003;51958;55.018;73.536;2023-04-25T10:34:03;30.00;28.67;19.00
65360;PMS5003;51958;55.018;73.536;2023-04-25T10:37:16;32.50;31.00;21.75
65360;PMS5003;51958;55.018;73.536;2023-04-25T10:40:22;35.00;31.50;21.75
65360;PMS5003;51958;55.018;73.536;2023-04-25T10:43:33;35.00;31.33;21.00
65360;PMS5003;51958;55.018;73.536;2023-04-25T10:46:35;34.00;31.00;21.00
65360;PMS5003;51958;55.018;73.536;2023-04-25T10:49:38;33.25;30.75;21.00
65360;PMS5003;51958;55.018;73.536;2023-04-25T10:52:42;31.00;30.00;21.00
65360;PMS5003;51958;55.018;73.536;2023-04-25T10:55:49;34.00;31.00;21.00
65360;PMS5003;51958;55.018;73.536;2023-04-25T11:02:11;28.00;27.75;19.00
65360;PMS5003;51958;55.018;73.536;2023-04-25T11:05:17;28.00;26.00;18.00
65360;PMS5003;51958;55.018;73.536;2023-04-25T11:08:40;23.75;21.25;16.00
65360;PMS5003;51958;55.018;73.536;2023-04-25T11:11:53;20.00;19.00;11.25
65360;PMS5003;51958;55.018;73.536;2023-04-25T11:15:01;17.00;17.00;9.00
65360;PMS5003;51958;55.018;73.536;2023-04-25T11:18:04;13.00;13.00;6.00
65360;PMS5003;51958;55.018;73.536;2023-04-25T11:21:11;8.00;8.00;5.00
65360;PMS5003;51958;55.018;73.536;2023-04-25T11:24:12;5.00;5.00;3.00
65360;PMS5003;51958;55.018;73.536;2023-04-25T11:27:13;6.00;6.00;3.75
65360;PMS5003;51958;55.018;73.536;2023-04-25T11:30:14;5.00;5.00;2.00
65360;PMS5003;51958;55.018;73.536;2023-04-25T11:33:22;4.00;3.00;2.00
65360;PMS5003;51958;55.018;73.536;2023-04-25T11:36:24;2.33;1.33;0.00
65360;PMS5003;51958;55.018;73.536;2023-04-25T11:39:36;6.00;5.00;2.50
65360;PMS5003;51958;55.018;73.536;2023-04-25T11:42:43;5.00;5.00;3.00
65360;PMS5003;51958;55.018;73.536;2023-04-25T11:45:51;6.00;5.00;2.67
65360;PMS5003;51958;55.018;73.536;2023-04-25T11:48:53;2.00;2.00;1.00
65360;PMS5003;51958;55.018;73.536;2023-04-25T11:52:07;3.50;3.00;1.00
65360;PMS5003;51958;55.018;73.536;2023-04-25T11:55:15;2.00;2.00;2.00
65360;PMS5003;51958;55.018;73.536;2023-04-25T11:58:17;4.00;4.00;2.00
65360;PMS5003;51958;55.018;73.536;2023-04-25T12:01:25;15.00;15.00;10.50
65360;PMS5003;51958;55.018;73.536;2023-04-25T12:04:26;23.67;21.33;16.00
65360;PMS5003;51958;55.018;73.536;2023-04-25T12:07:31;28.00;26.75;19.00
65360;PMS5003;51958;55.018;73.536;2023-04-25T12:10:38;29.25;27.00;19.00
65360;PMS5003;51958;55.018;73.536;2023-04-25T12:13:40;23.50;21.25;17.50
65360;PMS5003;51958;55.018;73.536;2023-04-25T12:16:59;21.00;18.00;14.00
65360;PMS5003;51958;55.018;73.536;2023-04-25T12:20:09;20.00;17.00;14.00
65360;PMS5003;51958;55.018;73.536;2023-04-25T12:23:15;19.00;17.00;11.00
65360;PMS5003;51958;55.018;73.536;2023-04-25T12:26:17;22.00;19.67;11.67
65360;PMS5003;51958;55.018;73.536;2023-04-25T12:29:22;18.75;18.00;10.00
65360;PMS5003;51958;55.018;73.536;2023-04-25T12:32:24;20.00;19.00;9.75
65360;PMS5003;51958;55.018;73.536;2023-04-25T12:35:25;23.00;20.00;12.00
65360;PMS5003;51958;55.018;73.536;2023-04-25T12:38:27;20.00;19.00;11.00
65360;PMS5003;51958;55.018;73.536;2023-04-25T12:41:30;20.00;19.00;11.00
65360;PMS5003;51958;55.018;73.536;2023-04-25T12:44:31;24.50;21.50;12.50
65360;PMS5003;51958;55.018;73.536;2023-04-25T12:47:32;23.25;22.00;16.00
65360;PMS5003;51958;55.018;73.536;2023-04-25T12:50:40;27.50;24.75;19.00
65360;PMS5003;51958;55.018;73.536;2023-04-25T12:53:43;32.50;28.00;20.00
65360;PMS5003;51958;55.018;73.536;2023-04-25T12:56:43;32.00;28.33;21.00
65360;PMS5003;51958;55.018;73.536;2023-04-25T12:59:44;30.25;28.25;21.00
65360;PMS5003;51958;55.018;73.536;2023-04-25T13:02:46;31.00;29.75;21.00
65360;PMS5003;51958;55.018;73.536;2023-04-25T13:05:47;31.00;29.00;20.33
65360;PMS5003;51958;55.018;73.536;2023-04-25T13:08:48;69.25;55.50;37.50
65360;PMS5003;51958;55.018;73.536;2023-04-25T13:11:49;206.50;189.00;124.25
65360;PMS5003;51958;55.018;73.536;2023-04-25T13:14:50;259.75;238.00;153.00
65360;PMS5003;51958;55.018;73.536;2023-04-25T13:18:01;178.50;162.25;105.75
65360;PMS5003;51958;55.018;73.536;2023-04-25T13:21:02;118.25;104.50;67.75
65360;PMS5003;51958;55.018;73.536;2023-04-25T13:24:13;142.75;125.75;77.50
65360;PMS5003;51958;55.018;73.536;2023-04-25T13:27:14;186.67;162.33;91.00
65360;PMS5003;51958;55.018;73.536;2023-04-25T13:30:16;129.50;112.25;67.00
65360;PMS5003;51958;55.018;73.536;2023-04-25T13:33:18;201.75;179.00;107.75
65360;PMS5003;51958;55.018;73.536;2023-04-25T13:36:21;210.00;191.00;119.00
65360;PMS5003;51958;55.018;73.536;2023-04-25T13:39:22;170.75;150.75;94.50
65360;PMS5003;51958;55.018;73.536;2023-04-25T13:42:33;134.00;117.00;75.75
65360;PMS5003;51958;55.018;73.536;2023-04-25T13:45:44;85.75;76.75;50.50
65360;PMS5003;51958;55.018;73.536;2023-04-25T13:48:46;62.50;48.25;31.75
65360;PMS5003;51958;55.018;73.536;2023-04-25T13:51:49;48.00;37.00;24.75
65360;PMS5003;51958;55.018;73.536;2023-04-25T13:55:00;31.00;26.75;19.00
65360;PMS5003;51958;55.018;73.536;2023-04-25T13:58:10;23.50;22.50;16.50
65360;PMS5003;51958;55.018;73.536;2023-04-25T14:01:11;19.00;17.75;9.75
65360;PMS5003;51958;55.018;73.536;2023-04-25T14:04:12;17.25;15.50;5.50
65360;PMS5003;51958;55.018;73.536;2023-04-25T14:07:14;15.75;12.25;5.00
65360;PMS5003;51958;55.018;73.536;2023-04-25T14:10:18;14.00;10.50;5.25
65360;PMS5003;51958;55.018;73.536;2023-04-25T14:13:20;32.00;28.25;16.50
65360;PMS5003;51958;55.018;73.536;2023-04-25T14:16:21;45.33;38.00;23.00
65360;PMS5003;51958;55.018;73.536;2023-04-25T14:19:23;44.00;37.00;24.00
65360;PMS5003;51958;55.018;73.536;2023-04-25T14:22:35;38.50;34.00;23.00
65360;PMS5003;51958;55.018;73.536;2023-04-25T14:25:36;38.25;32.00;22.00
65360;PMS5003;51958;55.018;73.536;2023-04-25T14:28:37;43.00;34.50;23.00
65360;PMS5003;51958;55.018;73.536;2023-04-25T14:31:38;43.00;34.25;22.50
65360;PMS5003;51958;55.018;73.536;2023-04-25T14:34:40;45.25;37.25;24.25
65360;PMS5003;51958;55.018;73.536;2023-04-25T14:37:41;51.00;40.50;26.25
65360;PMS5003;51958;55.018;73.536;2023-04-25T14:40:47;57.50;44.50;29.00
65360;PMS5003;51958;55.018;73.536;2023-04-25T14:43:48;74.50;64.00;40.50
65360;PMS5003;51958;55.018;73.536;2023-04-25T14:46:49;85.33;76.00;47.33
65360;PMS5003;51958;55.018;73.536;2023-04-25T14:49:52;79.50;68.50;43.50
65360;PMS5003;51958;55.018;73.536;2023-04-25T14:52:54;72.25;62.75;40.00
65360;PMS5003;51958;55.018;73.536;2023-04-25T14:55:59;68.50;56.00;37.00
65360;PMS5003;51958;55.018;73.536;2023-04-25T14:59:05;71.00;59.25;38.75
65360;PMS5003;51958;55.018;73.536;2023-04-25T15:02:07;72.25;61.25;39.75
65360;PMS5003;51958;55.018;73.536;2023-04-25T15:05:08;73.75;64.25;42.50
65360;PMS5003;51958;55.018;73.536;2023-04-25T15:08:10;81.00;73.00;47.67
65360;PMS5003;51958;55.018;73.536;2023-04-25T15:11:11;84.67;76.00;50.00
65360;PMS5003;51958;55.018;73.536;2023-04-25T15:14:12;79.25;70.00;46.00
65360;PMS5003;51958;55.018;73.536;2023-04-25T15:17:13;73.67;65.33;42.00
65360;PMS5003;51958;55.018;73.536;2023-04-25T15:20:15;77.33;70.33;45.33
65360;PMS5003;51958;55.018;73.536;2023-04-25T15:23:26;81.33;71.00;45.33
65360;PMS5003;51958;55.018;73.536;2023-04-25T15:26:27;72.67;65.33;40.33
65360;PMS5003;51958;55.018;73.536;2023-04-25T15:29:28;66.33;54.00;35.00
65360;PMS5003;51958;55.018;73.536;2023-04-25T15:32:40;61.00;47.00;31.00
65360;PMS5003;51958;55.018;73.536;2023-04-25T15:35:48;60.00;47.00;30.00
65360;PMS5003;51958;55.018;73.536;2023-04-25T15:38:49;60.33;46.33;31.00
65360;PMS5003;51958;55.018;73.536;2023-04-25T15:41:50;63.00;48.67;32.00
65360;PMS5003;51958;55.018;73.536;2023-04-25T15:44:51;63.33;49.33;32.00
65360;PMS5003;51958;55.018;73.536;2023-04-25T15:47:57;59.67;46.33;30.67
65360;PMS5003;51958;55.018;73.536;2023-04-25T15:50:58;53.00;42.00;27.00
65360;PMS5003;51958;55.018;73.536;2023-04-25T15:54:04;47.00;38.00;26.00
65360;PMS5003;51958;55.018;73.536;2023-04-25T15:57:06;48.33;38.33;25.67
65360;PMS5003;51958;55.018;73.536;2023-04-25T16:00:08;51.67;40.33;26.00
65360;PMS5003;51958;55.018;73.536;2023-04-25T16:03:25;51.00;40.00;26.00
65360;PMS5003;51958;55.018;73.536;2023-04-25T16:06:26;50.33;39.00;25.00
65360;PMS5003;51958;55.018;73.536;2023-04-25T16:09:28;45.00;36.33;23.00
65360;PMS5003;51958;55.018;73.536;2023-04-25T16:12:29;41.00;33.00;22.67
65360;PMS5003;51958;55.018;73.536;2023-04-25T16:15:41;41.00;32.67;23.33
65360;PMS5003;51958;55.018;73.536;2023-04-25T16:18:42;47.00;37.50;25.50
65360;PMS5003;51958;55.018;73.536;2023-04-25T16:21:43;43.33;36.33;24.33
65360;PMS5003;51958;55.018;73.536;2023-04-25T16:24:49;39.33;32.67;22.67
65360;PMS5003;51958;55.018;73.536;2023-04-25T16:28:00;43.67;35.67;24.00
65360;PMS5003;51958;55.018;73.536;2023-04-25T16:31:01;35.67;29.33;21.00
65360;PMS5003;51958;55.018;73.536;2023-04-25T16:34:03;27.00;27.00;20.00
65360;PMS5003;51958;55.018;73.536;2023-04-25T16:37:04;25.50;24.00;19.00
65360;PMS5003;51958;55.018;73.536;2023-04-25T16:40:05;22.00;22.00;17.00
65360;PMS5003;51958;55.018;73.536;2023-04-25T16:43:09;23.00;20.33;16.00
65360;PMS5003;51958;55.018;73.536;2023-04-25T16:46:12;24.33;21.67;15.00
65360;PMS5003;51958;55.018;73.536;2023-04-25T16:49:24;24.00;20.00;14.00
65360;PMS5003;51958;55.018;73.536;2023-04-25T16:52:26;21.33;19.00;11.33
65360;PMS5003;51958;55.018;73.536;2023-04-25T16:55:28;21.67;18.00;11.00
65360;PMS5003;51958;55.018;73.536;2023-04-25T16:58:34;20.00;18.00;9.67
65360;PMS5003;51958;55.018;73.536;2023-04-25T17:01:38;22.00;17.00;7.67
65360;PMS5003;51958;55.018;73.536;2023-04-25T17:04:39;21.00;16.00;8.67
65360;PMS5003;51958;55.018;73.536;2023-04-25T17:07:40;21.00;18.00;10.00
65360;PMS5003;51958;55.018;73.536;2023-04-25T17:10:41;21.00;19.00;10.00
65360;PMS5003;51958;55.018;73.536;2023-04-25T17:13:42;20.00;20.00;11.00
65360;PMS5003;51958;55.018;73.536;2023-04-25T17:16:50;18.00;17.50;9.00
65360;PMS5003;51958;55.018;73.536;2023-04-25T17:20:01;19.00;17.00;9.33
65360;PMS5003;51958;55.018;73.536;2023-04-25T17:23:06;18.00;17.00;8.33
65360;PMS5003;51958;55.018;73.536;2023-04-25T17:26:08;18.00;16.00;7.67
65360;PMS5003;51958;55.018;73.536;2023-04-25T17:29:14;18.00;16.00;7.00
65360;PMS5003;51958;55.018;73.536;2023-04-25T17:32:15;18.00;16.00;8.00
65360;PMS5003;51958;55.018;73.536;2023-04-25T17:35:16;17.00;16.00;6.00
65360;PMS5003;51958;55.018;73.536;2023-04-25T17:38:17;16.00;15.00;6.33